createdAt,value
2018-12-14T00:02:12.674Z,10.20
2018-12-14T00:04:40.420Z,10.10
2018-12-14T00:07:09.231Z,10.10
2018-12-14T00:09:37.031Z,10.97
2018-12-14T00:16:54.976Z,11.50
2018-12-14T00:19:22.932Z,10.13
2018-12-14T00:21:56.682Z,10.33
2018-12-14T00:24:24.745Z,10.90
2018-12-14T00:26:52.505Z,10.20
2018-12-14T00:29:20.342Z,11.27
2018-12-14T00:31:48.286Z,9.30
2018-12-14T00:34:15.999Z,11.13
2018-12-14T00:36:43.963Z,10.33
2018-12-14T00:39:11.836Z,11.47
2018-12-14T00:41:39.800Z,10.57
2018-12-14T00:44:09.334Z,9.60
2018-12-14T00:46:41.703Z,9.40
2018-12-14T00:49:11.994Z,10.37
2018-12-14T00:51:39.908Z,11.27
2018-12-14T00:54:08.947Z,9.50
2018-12-14T00:56:37.091Z,10.87
2018-12-14T00:59:07.879Z,10.03
2018-12-14T01:01:35.643Z,10.27
2018-12-14T01:04:05.046Z,8.90
2018-12-14T01:06:33.626Z,10.30
2018-12-14T01:09:01.366Z,9.27
2018-12-14T01:11:29.347Z,10.80
2018-12-14T01:13:57.340Z,11.13
2018-12-14T01:16:25.342Z,10.10
2018-12-14T01:18:53.039Z,10.53
2018-12-14T01:21:21.130Z,10.73
2018-12-14T01:23:49.590Z,9.13
2018-12-14T01:26:17.831Z,10.97
2018-12-14T01:28:45.644Z,10.70
2018-12-14T01:31:13.492Z,11.63
2018-12-14T01:33:41.382Z,9.97
2018-12-14T01:36:10.055Z,11.13
2018-12-14T01:38:37.835Z,10.80
2018-12-14T01:41:05.981Z,11.30
2018-12-14T01:43:33.769Z,10.63
2018-12-14T01:46:01.635Z,10.00
2018-12-14T01:48:29.544Z,10.33
2018-12-14T01:50:57.876Z,11.03
2018-12-14T01:53:25.667Z,10.73
2018-12-14T01:55:53.700Z,10.83
2018-12-14T01:58:21.493Z,10.60
2018-12-14T02:00:49.460Z,10.57
2018-12-14T02:03:17.334Z,10.67
2018-12-14T02:05:45.315Z,11.27
2018-12-14T02:08:13.375Z,10.57
2018-12-14T02:10:51.226Z,10.30
2018-12-14T02:13:19.906Z,10.80
2018-12-14T02:15:47.912Z,12.50
2018-12-14T02:18:15.782Z,10.37
2018-12-14T02:20:44.350Z,11.20
2018-12-14T02:23:12.539Z,11.50
2018-12-14T02:25:41.776Z,10.93
2018-12-14T02:28:10.345Z,11.40
2018-12-14T02:30:53.213Z,10.30
2018-12-14T02:33:22.886Z,10.90
2018-12-14T02:35:51.006Z,10.90
2018-12-14T02:38:18.822Z,11.57
2018-12-14T02:40:46.942Z,11.83
2018-12-14T02:43:14.752Z,10.03
2018-12-14T02:45:43.264Z,10.27
2018-12-14T02:48:11.092Z,10.83
2018-12-14T02:50:41.506Z,10.80
2018-12-14T02:53:09.313Z,10.23
2018-12-14T02:55:37.349Z,11.43
2018-12-14T02:58:08.246Z,11.40
2018-12-14T03:00:36.022Z,9.63
2018-12-14T03:03:03.987Z,12.10
2018-12-14T03:05:31.948Z,10.40
2018-12-14T03:08:00.099Z,11.90
2018-12-14T03:10:28.721Z,9.93
2018-12-14T03:12:56.696Z,12.20
2018-12-14T03:15:24.628Z,11.00
2018-12-14T03:17:52.804Z,10.87
2018-12-14T03:20:21.095Z,10.87
2018-12-14T03:22:49.057Z,10.73
2018-12-14T03:25:17.326Z,12.20
2018-12-14T03:27:45.090Z,11.67
2018-12-14T03:30:16.139Z,10.97
2018-12-14T03:32:44.117Z,10.10
2018-12-14T03:35:11.883Z,10.67
2018-12-14T03:37:39.810Z,10.87
2018-12-14T03:40:08.486Z,10.40
2018-12-14T03:42:36.638Z,9.80
2018-12-14T03:45:11.769Z,10.40
2018-12-14T03:47:39.549Z,10.47
2018-12-14T03:50:10.051Z,9.83
2018-12-14T03:52:38.602Z,9.53
2018-12-14T03:55:06.506Z,10.93
2018-12-14T03:57:34.341Z,10.10
2018-12-14T04:00:04.488Z,10.73
2018-12-14T04:02:34.851Z,10.50
2018-12-14T04:05:04.025Z,11.10
2018-12-14T04:07:32.352Z,11.20
2018-12-14T04:10:00.640Z,9.40
2018-12-14T04:12:28.632Z,10.27
2018-12-14T04:14:57.991Z,10.67
2018-12-14T04:17:25.896Z,9.80
2018-12-14T04:19:53.739Z,9.93
2018-12-14T04:22:21.451Z,9.33
2018-12-14T04:24:49.256Z,11.63
2018-12-14T04:27:17.246Z,9.53
2018-12-14T04:29:45.105Z,10.00
2018-12-14T04:32:13.211Z,10.00
2018-12-14T04:34:41.362Z,10.50
2018-12-14T04:37:09.151Z,10.17
2018-12-14T04:39:36.992Z,10.40
2018-12-14T04:42:08.222Z,9.37
2018-12-14T04:44:36.016Z,8.83
2018-12-14T04:47:04.187Z,9.53
2018-12-14T04:49:32.321Z,10.50
2018-12-14T04:52:02.524Z,10.20
2018-12-14T04:54:30.398Z,9.37
2018-12-14T04:56:58.155Z,9.80
2018-12-14T04:59:25.859Z,10.90
2018-12-14T05:01:53.727Z,10.50
2018-12-14T05:04:21.574Z,10.10
2018-12-14T05:06:49.666Z,9.47
2018-12-14T05:09:17.445Z,8.93
2018-12-14T05:11:45.751Z,9.60
2018-12-14T05:14:13.577Z,9.80
2018-12-14T05:16:55.657Z,10.93
2018-12-14T05:19:29.492Z,9.70
2018-12-14T05:21:57.691Z,11.30
2018-12-14T05:24:25.473Z,11.53
2018-12-14T05:26:54.329Z,10.87
2018-12-14T05:29:22.154Z,10.73
2018-12-14T05:31:50.041Z,11.43
2018-12-14T05:34:17.882Z,10.47
2018-12-14T05:36:45.930Z,11.73
2018-12-14T05:39:13.804Z,10.77
2018-12-14T05:41:41.528Z,10.50
2018-12-14T05:44:11.347Z,10.10
2018-12-14T05:46:39.106Z,10.80
2018-12-14T05:49:07.232Z,10.07
2018-12-14T05:51:35.558Z,10.20
2018-12-14T05:54:05.879Z,9.53
2018-12-14T05:56:35.384Z,12.80
2018-12-14T05:59:03.774Z,22.27
2018-12-14T06:02:02.758Z,15.10
2018-12-14T06:04:36.125Z,13.23
2018-12-14T06:07:04.181Z,11.07
2018-12-14T06:09:32.180Z,10.30
2018-12-14T06:12:01.892Z,10.17
2018-12-14T06:14:30.222Z,9.73
2018-12-14T06:16:59.307Z,10.10
2018-12-14T06:19:28.176Z,9.33
2018-12-14T06:22:12.830Z,35.97
2018-12-14T06:24:40.979Z,34.10
2018-12-14T06:27:09.032Z,21.53
2018-12-14T06:32:30.377Z,12.00
2018-12-14T06:34:59.715Z,10.87
2018-12-14T06:37:28.000Z,10.83
2018-12-14T06:39:58.372Z,10.40
2018-12-14T06:42:26.322Z,9.47
2018-12-14T06:44:55.130Z,9.80
2018-12-14T06:47:23.963Z,9.90
2018-12-14T06:49:52.772Z,10.27
2018-12-14T06:52:20.694Z,9.90
2018-12-14T06:54:48.482Z,9.73
2018-12-14T06:57:16.599Z,10.87
2018-12-14T06:59:44.766Z,10.50
2018-12-14T07:02:13.224Z,10.60
2018-12-14T07:04:41.306Z,11.17
2018-12-14T07:07:09.534Z,9.97
2018-12-14T07:09:37.570Z,16.77
2018-12-14T07:12:10.504Z,22.43
2018-12-14T07:14:38.887Z,15.03
2018-12-14T07:17:10.385Z,12.43
2018-12-14T07:19:38.965Z,12.20
2018-12-14T07:22:12.537Z,11.83
2018-12-14T07:24:43.568Z,11.00
2018-12-14T07:27:13.091Z,12.73
2018-12-14T07:29:41.382Z,11.07
2018-12-14T07:32:12.303Z,12.13
2018-12-14T07:34:40.418Z,11.93
2018-12-14T07:37:08.533Z,13.53
2018-12-14T07:39:36.968Z,12.67
2018-12-14T07:42:21.195Z,12.40
2018-12-14T07:44:50.247Z,12.10
2018-12-14T07:47:19.070Z,12.57
2018-12-14T07:49:47.493Z,12.33
2018-12-14T07:52:17.205Z,35.13
2018-12-14T07:54:47.347Z,16.83
2018-12-14T07:57:16.190Z,14.70
2018-12-14T07:59:44.528Z,12.60
2018-12-14T08:02:12.680Z,13.17
2018-12-14T08:04:41.199Z,12.20
2018-12-14T08:07:09.194Z,12.40
2018-12-14T08:09:38.320Z,11.90
2018-12-14T08:12:09.322Z,12.07
2018-12-14T08:14:38.020Z,11.73
2018-12-14T08:17:06.345Z,12.27
2018-12-14T08:19:34.517Z,12.90
2018-12-14T08:22:03.473Z,13.90
2018-12-14T08:24:32.483Z,13.33
2018-12-14T08:27:12.980Z,13.67
2018-12-14T08:29:44.598Z,12.70
2018-12-14T08:32:13.614Z,12.80
2018-12-14T08:34:41.720Z,12.73
2018-12-14T08:37:09.683Z,11.97
2018-12-14T08:39:37.661Z,11.20
2018-12-14T08:42:07.929Z,12.53
2018-12-14T08:44:36.878Z,13.00
2018-12-14T08:47:04.989Z,17.80
2018-12-14T08:49:32.924Z,17.43
2018-12-14T08:52:01.162Z,12.80
2018-12-14T08:54:29.525Z,14.00
2018-12-14T08:56:57.807Z,12.73
2018-12-14T08:59:25.981Z,11.93
2018-12-14T09:01:54.138Z,13.77
2018-12-14T09:04:22.280Z,12.20
2018-12-14T09:06:50.482Z,13.60
2018-12-14T09:09:18.488Z,13.27
2018-12-14T09:12:02.917Z,13.47
2018-12-14T09:14:31.159Z,11.80
2018-12-14T09:16:58.937Z,12.37
2018-12-14T09:19:26.900Z,11.83
2018-12-14T09:21:54.992Z,11.87
2018-12-14T09:24:23.019Z,13.67
2018-12-14T09:26:51.066Z,12.97
2018-12-14T09:29:19.402Z,10.93
2018-12-14T09:31:47.849Z,12.87
2018-12-14T09:34:15.944Z,12.60
2018-12-14T09:36:58.630Z,13.50
2018-12-14T09:39:30.200Z,13.87
2018-12-14T09:41:58.768Z,20.13
2018-12-14T09:44:27.339Z,25.37
2018-12-14T09:46:56.063Z,20.60
2018-12-14T09:49:24.308Z,16.77
2018-12-14T09:51:52.245Z,14.00
2018-12-14T09:54:20.554Z,13.83
2018-12-14T09:56:48.648Z,13.03
2018-12-14T09:59:17.000Z,13.20
2018-12-14T10:01:47.279Z,13.63
2018-12-14T10:04:15.290Z,14.13
2018-12-14T10:06:43.576Z,14.00
2018-12-14T10:09:11.746Z,13.20
2018-12-14T10:12:09.587Z,12.13
2018-12-14T10:14:37.476Z,14.77
2018-12-14T10:17:05.457Z,11.50
2018-12-14T10:19:33.623Z,11.87
2018-12-14T10:22:33.349Z,13.47
2018-12-14T10:25:02.057Z,12.20
2018-12-14T10:27:29.999Z,13.00
2018-12-14T10:29:59.974Z,33.97
2018-12-14T10:32:42.358Z,24.00
2018-12-14T10:35:10.543Z,17.37
2018-12-14T10:37:38.657Z,14.13
2018-12-14T10:40:10.847Z,14.20
2018-12-14T10:42:38.894Z,12.00
2018-12-14T10:45:17.343Z,12.60
2018-12-14T10:47:47.630Z,10.93
2018-12-14T10:50:20.634Z,13.40
2018-12-14T10:52:48.950Z,11.70
2018-12-14T10:55:18.615Z,12.43
2018-12-14T10:57:47.515Z,12.00
2018-12-14T11:00:26.253Z,13.00
2018-12-14T11:03:01.666Z,12.33
2018-12-14T11:05:31.841Z,12.47
2018-12-14T11:08:01.077Z,12.47
2018-12-14T11:10:30.890Z,12.10
2018-12-14T11:12:59.016Z,12.13
2018-12-14T11:15:27.681Z,13.93
2018-12-14T11:17:55.647Z,12.83
2018-12-14T11:20:24.450Z,12.80
2018-12-14T11:22:53.067Z,18.90
2018-12-14T11:25:22.001Z,19.43
2018-12-14T11:27:50.918Z,15.20
2018-12-14T11:30:25.547Z,13.70
2018-12-14T11:32:53.766Z,13.50
2018-12-14T11:35:22.507Z,12.07
2018-12-14T11:37:50.960Z,11.90
2018-12-14T11:40:19.642Z,12.20
2018-12-14T11:42:48.045Z,11.90
2018-12-14T11:45:17.862Z,12.90
2018-12-14T11:47:46.135Z,12.40
2018-12-14T11:50:14.261Z,13.07
2018-12-14T11:52:42.243Z,12.67
2018-12-14T11:55:10.508Z,11.17
2018-12-14T11:57:42.604Z,12.20
2018-12-14T12:00:23.775Z,11.83
2018-12-14T12:02:52.232Z,12.37
2018-12-14T12:05:23.854Z,11.50
2018-12-14T12:07:52.755Z,12.13
2018-12-14T12:10:21.661Z,11.60
2018-12-14T12:12:49.926Z,11.60
2018-12-14T12:15:19.746Z,12.67
2018-12-14T12:17:50.556Z,10.93
2018-12-14T12:20:23.380Z,10.43
2018-12-14T12:22:56.146Z,10.37
2018-12-14T12:25:24.154Z,12.07
2018-12-14T12:28:06.982Z,11.23
2018-12-14T12:30:37.272Z,11.43
2018-12-14T12:33:05.448Z,11.67
2018-12-14T12:35:34.526Z,11.20
2018-12-14T12:38:19.430Z,11.17
2018-12-14T12:40:48.063Z,10.77
2018-12-14T12:43:16.770Z,10.50
2018-12-14T12:45:45.349Z,10.90
2018-12-14T12:48:44.913Z,10.00
2018-12-14T12:51:37.053Z,9.93
2018-12-14T12:54:15.310Z,9.60
2018-12-14T12:56:47.682Z,11.10
2018-12-14T12:59:15.766Z,10.90
2018-12-14T13:01:43.933Z,10.30
2018-12-14T13:04:28.920Z,10.93
2018-12-14T13:07:02.065Z,10.10
2018-12-14T13:09:30.461Z,10.47
2018-12-14T13:11:58.410Z,9.57
2018-12-14T13:14:29.449Z,10.07
2018-12-14T13:17:18.192Z,9.77
2018-12-14T13:19:49.043Z,9.37
2018-12-14T13:22:17.177Z,9.30
2018-12-14T13:24:45.664Z,9.30
2018-12-14T13:27:20.112Z,9.33
2018-12-14T13:29:43.955Z,9.40
2018-12-14T13:32:12.436Z,9.40
2018-12-14T13:34:40.516Z,9.90
2018-12-14T13:37:09.769Z,8.27
2018-12-14T13:39:38.083Z,9.20
2018-12-14T13:42:23.484Z,9.87
2018-12-14T13:44:51.617Z,10.07
2018-12-14T13:47:19.815Z,8.70
2018-12-14T13:49:47.908Z,9.77
2018-12-14T13:52:16.358Z,8.90
2018-12-14T13:54:44.395Z,10.00
2018-12-14T13:57:12.560Z,10.80
2018-12-14T13:59:40.811Z,10.60
2018-12-14T14:02:13.861Z,9.20
2018-12-14T14:04:42.810Z,9.73
2018-12-14T14:07:10.861Z,9.90
2018-12-14T14:09:41.165Z,9.67
2018-12-14T14:12:10.041Z,9.40
2018-12-14T14:14:38.143Z,9.30
2018-12-14T14:17:09.559Z,9.60
2018-12-14T14:19:39.535Z,9.73
2018-12-14T14:22:10.062Z,9.77
2018-12-14T14:24:39.544Z,10.40
2018-12-14T14:27:07.405Z,8.80
2018-12-14T14:29:37.786Z,9.20
2018-12-14T14:32:09.980Z,10.40
2018-12-14T14:34:39.034Z,10.37
2018-12-14T14:37:07.106Z,10.70
2018-12-14T14:39:35.436Z,10.20
2018-12-14T14:42:04.207Z,11.73
2018-12-14T14:44:32.804Z,11.20
2018-12-14T14:47:02.754Z,12.67
2018-12-14T14:49:30.698Z,10.70
2018-12-14T14:51:58.635Z,11.13
2018-12-14T14:54:26.527Z,9.37
2018-12-14T14:57:06.069Z,10.27
2018-12-14T14:59:34.781Z,11.20
2018-12-14T15:02:03.873Z,12.00
2018-12-14T15:04:32.505Z,12.57
2018-12-14T15:07:07.931Z,11.40
2018-12-14T15:09:35.815Z,12.00
2018-12-14T15:12:05.181Z,12.70
2018-12-14T15:14:33.520Z,11.93
2018-12-14T15:17:01.453Z,13.63
2018-12-14T15:19:29.243Z,12.70
2018-12-14T15:21:57.484Z,12.53
2018-12-14T15:24:25.434Z,12.77
2018-12-14T15:26:53.168Z,11.90
2018-12-14T15:29:21.370Z,11.33
2018-12-14T15:31:49.585Z,13.20
2018-12-14T15:34:17.881Z,12.67
2018-12-14T15:36:49.735Z,12.87
2018-12-14T15:39:18.420Z,12.80
2018-12-14T15:41:47.250Z,10.37
2018-12-14T15:44:20.193Z,11.63
2018-12-14T15:46:48.182Z,12.30
2018-12-14T15:49:16.027Z,10.53
2018-12-14T15:54:46.553Z,10.80
2018-12-14T15:57:14.545Z,11.90
2018-12-14T15:59:42.885Z,12.43
2018-12-14T16:02:11.204Z,11.90
2018-12-14T16:04:39.615Z,12.20
2018-12-14T16:07:12.064Z,12.07
2018-12-14T16:09:39.920Z,11.00
2018-12-14T16:12:09.308Z,11.93
2018-12-14T16:14:37.089Z,12.13
2018-12-14T16:17:04.952Z,10.30
2018-12-14T16:19:33.908Z,10.70
2018-12-14T16:22:02.277Z,12.57
2018-12-14T16:24:30.396Z,13.07
2018-12-14T16:26:58.281Z,10.97
2018-12-14T16:29:27.484Z,10.67
2018-12-14T16:31:55.505Z,11.33
2018-12-14T16:34:23.346Z,11.87
2018-12-14T16:36:51.250Z,12.33
2018-12-14T16:39:19.352Z,12.53
2018-12-14T16:41:47.699Z,13.00
2018-12-14T16:44:15.464Z,11.97
2018-12-14T16:46:43.467Z,12.07
2018-12-14T16:49:11.508Z,11.20
2018-12-14T16:51:39.545Z,11.13
2018-12-14T16:54:09.526Z,11.43
2018-12-14T16:56:43.418Z,10.70
2018-12-14T16:59:11.374Z,11.60
2018-12-14T17:01:40.238Z,12.13
2018-12-14T17:04:11.633Z,11.80
2018-12-14T17:06:55.547Z,11.30
2018-12-14T17:09:23.497Z,10.80
2018-12-14T17:11:51.756Z,11.17
2018-12-14T17:14:27.081Z,11.90
2018-12-14T17:16:56.687Z,11.60
2018-12-14T17:19:24.453Z,12.53
2018-12-14T17:21:52.637Z,11.90
2018-12-14T17:24:31.230Z,11.40
2018-12-14T17:27:00.665Z,11.30
2018-12-14T17:29:29.509Z,11.97
2018-12-14T17:31:57.692Z,11.60
2018-12-14T17:35:14.489Z,12.30
2018-12-14T17:37:53.186Z,11.93
2018-12-14T17:40:25.317Z,12.00
2018-12-14T17:42:55.447Z,12.00
2018-12-14T17:45:24.489Z,12.40
2018-12-14T17:47:53.459Z,12.33
2018-12-14T17:50:22.687Z,13.27
2018-12-14T17:52:50.971Z,12.30
2018-12-14T17:55:19.646Z,11.40
2018-12-14T17:57:47.804Z,11.50
2018-12-14T18:00:18.898Z,11.93
2018-12-14T18:02:46.793Z,11.83
2018-12-14T18:05:14.674Z,12.07
2018-12-14T18:07:49.004Z,12.43
2018-12-14T18:10:16.903Z,13.03
2018-12-14T18:12:45.903Z,11.17
2018-12-14T18:15:14.267Z,11.43
2018-12-14T18:17:42.001Z,11.07
2018-12-14T18:20:10.583Z,11.63
2018-12-14T18:22:39.168Z,12.20
2018-12-14T18:25:08.227Z,11.80
2018-12-14T18:27:36.020Z,10.73
2018-12-14T18:30:21.450Z,10.67
2018-12-14T18:32:52.081Z,11.63
2018-12-14T18:35:21.594Z,11.97
2018-12-14T18:37:49.548Z,12.37
2018-12-14T18:40:17.788Z,12.73
2018-12-14T18:42:45.602Z,9.63
2018-12-14T18:45:15.878Z,12.30
2018-12-14T18:47:46.966Z,12.23
2018-12-14T18:50:15.547Z,12.73
2018-12-14T18:52:43.443Z,12.10
2018-12-14T18:55:11.691Z,11.47
2018-12-14T18:57:40.385Z,10.80
2018-12-14T19:00:19.734Z,12.20
2018-12-14T19:02:47.639Z,11.40
2018-12-14T19:05:15.480Z,11.30
2018-12-14T19:07:43.536Z,12.27
2018-12-14T19:10:14.971Z,10.80
2018-12-14T19:12:42.731Z,11.37
2018-12-14T19:15:14.689Z,11.77
2018-12-14T19:17:44.720Z,12.77
2018-12-14T19:20:17.001Z,13.50
2018-12-14T19:22:46.321Z,12.17
2018-12-14T19:25:14.597Z,11.60
2018-12-14T19:27:42.542Z,12.90
2018-12-14T19:30:17.911Z,11.60
2018-12-14T19:32:47.649Z,11.67
2018-12-14T19:35:15.616Z,12.50
2018-12-14T19:37:43.719Z,11.57
2018-12-14T19:40:11.760Z,12.07
2018-12-14T19:42:39.690Z,11.60
2018-12-14T19:45:12.952Z,12.20
2018-12-14T19:47:40.687Z,10.90
2018-12-14T19:50:11.647Z,11.80
2018-12-14T19:52:39.409Z,11.63
2018-12-14T19:55:07.745Z,11.40
2018-12-14T19:57:35.959Z,10.37
2018-12-14T20:00:13.414Z,12.07
2018-12-14T20:02:42.641Z,11.10
2018-12-14T20:05:10.300Z,12.20
2018-12-14T20:07:38.039Z,10.67
2018-12-14T20:10:13.775Z,12.03
2018-12-14T20:12:41.628Z,11.53
2018-12-14T20:15:13.111Z,10.80
2018-12-14T20:17:40.879Z,14.13
2018-12-14T20:20:11.793Z,12.07
2018-12-14T20:22:39.668Z,12.33
2018-12-14T20:25:07.721Z,13.17
2018-12-14T20:27:35.597Z,17.30
2018-12-14T20:30:13.205Z,16.90
2018-12-14T20:32:43.928Z,14.70
2018-12-14T20:35:12.540Z,12.70
2018-12-14T20:37:40.692Z,11.60
2018-12-14T20:40:09.094Z,11.37
2018-12-14T20:42:37.153Z,11.63
2018-12-14T20:46:49.783Z,12.83
2018-12-14T20:49:18.399Z,11.67
2018-12-14T20:51:46.276Z,11.20
2018-12-14T20:54:17.651Z,22.83
2018-12-14T20:56:51.609Z,17.73
2018-12-14T20:59:16.295Z,13.93
2018-12-14T21:01:44.341Z,12.07
2018-12-14T21:04:12.557Z,10.03
2018-12-14T21:06:40.522Z,10.03
2018-12-14T21:09:25.105Z,10.37
2018-12-14T21:11:53.387Z,9.03
2018-12-14T21:14:21.476Z,9.97
2018-12-14T21:16:57.430Z,9.40
2018-12-14T21:19:26.098Z,8.53
2018-12-14T21:21:53.989Z,9.20
2018-12-14T21:24:22.052Z,9.53
2018-12-14T21:26:50.313Z,8.20
2018-12-14T21:29:18.501Z,8.70
2018-12-14T21:31:46.411Z,8.50
2018-12-14T21:34:14.532Z,8.30
2018-12-14T21:36:42.415Z,8.43
2018-12-14T21:39:10.253Z,8.73
2018-12-14T21:41:44.055Z,9.00
2018-12-14T21:44:21.266Z,7.97
2018-12-14T21:46:49.182Z,9.07
2018-12-14T21:49:21.164Z,9.23
2018-12-14T21:51:49.191Z,8.73
2018-12-14T21:54:17.243Z,9.93
2018-12-14T21:56:45.115Z,8.90
2018-12-14T21:59:13.104Z,7.73
2018-12-14T22:01:40.893Z,8.57
2018-12-14T22:04:10.484Z,8.67
2018-12-14T22:06:38.303Z,8.57
2018-12-14T22:09:08.596Z,7.50
2018-12-14T22:11:36.755Z,8.23
2018-12-14T22:14:06.958Z,7.60
2018-12-14T22:16:39.162Z,7.00
2018-12-14T22:19:05.618Z,7.63
2018-12-14T22:21:33.414Z,7.00
2018-12-14T22:24:01.705Z,7.03
2018-12-14T22:26:30.831Z,7.60
2018-12-14T22:28:58.586Z,7.97
2018-12-14T22:31:26.433Z,7.33
2018-12-14T22:34:02.375Z,7.53
2018-12-14T22:36:30.919Z,7.90
2018-12-14T22:38:58.695Z,7.67
2018-12-14T22:41:26.464Z,8.33
2018-12-14T22:43:55.715Z,7.43
2018-12-14T22:46:23.537Z,6.90
2018-12-14T22:48:51.409Z,7.27
2018-12-14T22:51:19.190Z,6.40
2018-12-14T22:53:48.036Z,7.57
2018-12-14T22:56:15.791Z,6.77
2018-12-14T22:58:43.599Z,7.43
2018-12-14T23:01:11.704Z,7.43
2018-12-14T23:03:39.672Z,6.67
2018-12-14T23:06:09.382Z,7.20
2018-12-14T23:08:37.240Z,7.03
2018-12-14T23:11:05.296Z,6.63
2018-12-14T23:13:33.283Z,6.97
2018-12-14T23:18:58.522Z,6.53
2018-12-14T23:21:26.632Z,7.13
2018-12-14T23:23:55.029Z,5.70
2018-12-14T23:26:22.852Z,6.20
2018-12-14T23:28:50.954Z,5.50
2018-12-14T23:31:18.705Z,6.17
2018-12-14T23:33:47.607Z,6.80
2018-12-14T23:36:25.171Z,6.90
2018-12-14T23:38:53.582Z,7.40
2018-12-14T23:41:21.837Z,7.33
2018-12-14T23:43:49.712Z,7.33
2018-12-14T23:46:21.155Z,5.33
2018-12-14T23:48:49.402Z,6.40
2018-12-14T23:51:17.462Z,5.87
2018-12-14T23:53:45.665Z,6.20
2018-12-14T23:56:13.687Z,6.13
2018-12-14T23:58:42.032Z,6.50
